Time;durP1;ratioP1;P1;durP2;ratioP2;P2;SDS_P1;SDS_P2;PMS_P1;PMS_P2;Temp;Humidity;BMP_temperature;BMP_pressure;BME280_temperature;BME280_humidity;BME280_pressure;Samples;Min_cycle;Max_cycle;Signal;HPM_P1;HPM_P2
2020/12/07 00:00:27;;;;;;;17.60;15.15;;;;;;;;;;5120399;28;20180;-88
2020/12/07 00:02:55;;;;;;;19.20;14.68;;;;;;;;;;5120065;28;20188;-88
2020/12/07 00:05:22;;;;;;;18.73;15.82;;;;;;;;;;5121052;28;20212;-87
2020/12/07 00:07:49;;;;;;;17.42;13.65;;;;;;;;;;5120285;28;20176;-87
2020/12/07 00:10:15;;;;;;;17.63;14.38;;;;;;;;;;5119717;28;20223;-87
2020/12/07 00:12:45;;;;;;;19.40;14.35;;;;;;;;;;5120111;28;20448;-88
2020/12/07 00:15:12;;;;;;;19.23;14.10;;;;;;;;;;5120251;28;20245;-88
2020/12/07 00:17:39;;;;;;;17.50;13.93;;;;;;;;;;5120129;28;20475;-87
2020/12/07 00:20:08;;;;;;;16.80;13.13;;;;;;;;;;5119189;28;20560;-87
2020/12/07 00:22:35;;;;;;;18.70;15.02;;;;;;;;;;5120038;28;20195;-86
2020/12/07 00:25:03;;;;;;;16.23;13.40;;;;;;;;;;5119431;28;20176;-87
2020/12/07 00:27:31;;;;;;;19.83;15.63;;;;;;;;;;5119661;28;20180;-86
2020/12/07 00:29:59;;;;;;;18.95;15.63;;;;;;;;;;5120188;28;20188;-87
2020/12/07 00:32:28;;;;;;;23.65;18.17;;;;;;;;;;5119391;28;20559;-87
2020/12/07 00:34:56;;;;;;;22.83;17.73;;;;;;;;;;5119638;28;20183;-87
2020/12/07 00:37:24;;;;;;;24.30;17.95;;;;;;;;;;5119039;28;20223;-86
2020/12/07 00:39:51;;;;;;;23.45;17.20;;;;;;;;;;5120282;28;20200;-87
2020/12/07 00:42:18;;;;;;;23.85;18.02;;;;;;;;;;5119541;28;20199;-86
2020/12/07 00:44:45;;;;;;;26.45;18.15;;;;;;;;;;5119287;28;20194;-86
2020/12/07 00:47:12;;;;;;;23.20;18.10;;;;;;;;;;5119443;28;20194;-86
2020/12/07 00:49:40;;;;;;;21.30;16.95;;;;;;;;;;5119068;28;20561;-87
2020/12/07 00:52:08;;;;;;;22.38;17.00;;;;;;;;;;5118852;28;20211;-88
2020/12/07 00:54:36;;;;;;;21.23;16.25;;;;;;;;;;5119072;28;20190;-87
2020/12/07 00:57:04;;;;;;;17.45;14.00;;;;;;;;;;5118915;28;20199;-86
2020/12/07 00:59:31;;;;;;;18.88;15.10;;;;;;;;;;5119841;28;20237;-87
2020/12/07 01:01:59;;;;;;;15.45;12.82;;;;;;;;;;5118518;28;20205;-88
2020/12/07 01:04:26;;;;;;;17.27;13.00;;;;;;;;;;5119049;28;20179;-87
2020/12/07 01:06:53;;;;;;;16.52;12.40;;;;;;;;;;5119215;28;20235;-88
2020/12/07 01:09:21;;;;;;;14.82;12.52;;;;;;;;;;5119222;28;20184;-88
2020/12/07 01:11:56;;;;;;;14.95;12.45;;;;;;;;;;5118780;28;20211;-88
2020/12/07 01:14:23;;;;;;;17.13;13.73;;;;;;;;;;5119243;28;20191;-88
2020/12/07 01:16:50;;;;;;;14.75;12.10;;;;;;;;;;5118970;28;20184;-88
2020/12/07 01:19:18;;;;;;;16.63;12.98;;;;;;;;;;5118990;28;20184;-88
2020/12/07 01:21:45;;;;;;;21.75;14.43;;;;;;;;;;5118621;28;20187;-88
2020/12/07 01:24:12;;;;;;;17.50;13.90;;;;;;;;;;5118982;28;20184;-88
2020/12/07 01:26:40;;;;;;;18.17;13.73;;;;;;;;;;5119044;28;20184;-88
2020/12/07 01:29:08;;;;;;;18.58;15.18;;;;;;;;;;5119261;28;20184;-89
2020/12/07 01:31:35;;;;;;;18.83;14.65;;;;;;;;;;5118538;28;20600;-88
2020/12/07 01:34:03;;;;;;;22.30;16.02;;;;;;;;;;5118974;28;20190;-88
2020/12/07 01:36:30;;;;;;;20.15;15.85;;;;;;;;;;5118258;28;20246;-87
2020/12/07 01:38:56;;;;;;;16.65;13.73;;;;;;;;;;5118533;28;20202;-88
2020/12/07 01:41:23;;;;;;;19.38;14.68;;;;;;;;;;5119056;28;20203;-88
2020/12/07 01:43:50;;;;;;;20.48;15.85;;;;;;;;;;5118840;28;20194;-88
2020/12/07 01:46:22;;;;;;;18.48;14.85;;;;;;;;;;5118400;28;20192;-89
2020/12/07 01:48:49;;;;;;;19.92;15.13;;;;;;;;;;5119395;28;20447;-88
2020/12/07 01:51:16;;;;;;;19.52;15.27;;;;;;;;;;5118783;28;20505;-89
2020/12/07 01:53:44;;;;;;;20.23;16.95;;;;;;;;;;5118757;28;20200;-88
2020/12/07 01:56:19;;;;;;;26.60;18.20;;;;;;;;;;5118431;28;20182;-90
2020/12/07 01:58:46;;;;;;;23.20;17.38;;;;;;;;;;5118771;28;20184;-90
2020/12/07 02:01:13;;;;;;;21.02;17.33;;;;;;;;;;5118893;28;20205;-88
2020/12/07 02:03:41;;;;;;;23.45;18.25;;;;;;;;;;5118749;28;20199;-89
2020/12/07 02:06:08;;;;;;;25.10;17.13;;;;;;;;;;5117821;28;20604;-89
2020/12/07 02:08:35;;;;;;;23.98;17.10;;;;;;;;;;5118401;28;20563;-89
2020/12/07 02:11:03;;;;;;;22.65;18.23;;;;;;;;;;5118418;28;20204;-89
2020/12/07 02:13:30;;;;;;;22.48;15.93;;;;;;;;;;5118495;28;20278;-90
2020/12/07 02:15:57;;;;;;;27.33;18.25;;;;;;;;;;5118421;28;20180;-89
2020/12/07 02:18:24;;;;;;;20.52;17.13;;;;;;;;;;5119545;28;20213;-88
2020/12/07 02:20:52;;;;;;;25.00;16.80;;;;;;;;;;5118511;28;20557;-88
2020/12/07 02:23:19;;;;;;;23.10;15.50;;;;;;;;;;5118218;28;20210;-88
2020/12/07 02:25:45;;;;;;;20.50;16.23;;;;;;;;;;5066638;28;20207;-88
2020/12/07 02:28:12;;;;;;;21.95;15.95;;;;;;;;;;5118745;28;20196;-88
2020/12/07 02:30:39;;;;;;;19.00;15.65;;;;;;;;;;5118349;28;20462;-88
2020/12/07 02:33:06;;;;;;;19.08;15.65;;;;;;;;;;5118246;28;20172;-88
2020/12/07 02:35:33;;;;;;;21.02;16.00;;;;;;;;;;5118021;28;20215;-88
2020/12/07 02:38:01;;;;;;;24.25;16.42;;;;;;;;;;5118342;28;20184;-88
2020/12/07 02:40:28;;;;;;;17.65;14.93;;;;;;;;;;5118463;28;20307;-89
2020/12/07 02:42:55;;;;;;;20.20;14.45;;;;;;;;;;5119489;28;20312;-86
2020/12/07 02:45:22;;;;;;;18.15;14.75;;;;;;;;;;5121052;28;20195;-89
2020/12/07 02:47:48;;;;;;;16.95;13.05;;;;;;;;;;5121625;28;20188;-89
2020/12/07 02:50:15;;;;;;;15.82;13.80;;;;;;;;;;5122027;28;20204;-89
2020/12/07 02:52:42;;;;;;;17.90;13.80;;;;;;;;;;5122133;28;20200;-88
2020/12/07 02:55:12;;;;;;;17.38;14.48;;;;;;;;;;5121869;28;20186;-89
2020/12/07 02:57:39;;;;;;;18.75;14.80;;;;;;;;;;5121475;28;20202;-88
2020/12/07 03:00:08;;;;;;;16.50;13.35;;;;;;;;;;5122208;28;20196;-89
2020/12/07 03:02:35;;;;;;;17.33;14.70;;;;;;;;;;5121787;28;20180;-88
2020/12/07 03:05:03;;;;;;;16.88;14.52;;;;;;;;;;5121555;28;20182;-89
2020/12/07 03:07:30;;;;;;;19.08;14.52;;;;;;;;;;5121742;28;20227;-89
2020/12/07 03:09:56;;;;;;;16.55;13.68;;;;;;;;;;5122072;28;20203;-89
2020/12/07 03:12:24;;;;;;;19.10;15.00;;;;;;;;;;5121355;28;20234;-89
2020/12/07 03:14:51;;;;;;;17.02;12.90;;;;;;;;;;5121168;28;20624;-89
2020/12/07 03:17:18;;;;;;;15.88;13.60;;;;;;;;;;5121410;28;20188;-89
2020/12/07 03:19:45;;;;;;;15.68;13.45;;;;;;;;;;5121398;28;20176;-89
2020/12/07 03:22:12;;;;;;;15.18;12.57;;;;;;;;;;5121100;28;20180;-89
2020/12/07 03:24:39;;;;;;;15.38;13.57;;;;;;;;;;5121155;28;20184;-89
2020/12/07 03:27:06;;;;;;;14.10;11.45;;;;;;;;;;5120899;28;20263;-89
2020/12/07 03:29:34;;;;;;;14.55;12.38;;;;;;;;;;5120916;28;20176;-89
2020/12/07 03:32:01;;;;;;;15.75;11.82;;;;;;;;;;5121018;28;20215;-90
2020/12/07 03:34:28;;;;;;;10.70;9.65;;;;;;;;;;5120722;28;20181;-88
2020/12/07 03:36:55;;;;;;;14.60;12.32;;;;;;;;;;5120080;28;20512;-88
2020/12/07 03:39:22;;;;;;;13.90;11.05;;;;;;;;;;5120402;28;20286;-88
2020/12/07 03:41:49;;;;;;;12.02;10.43;;;;;;;;;;5120095;28;20200;-89
2020/12/07 03:44:16;;;;;;;12.82;10.52;;;;;;;;;;5120770;28;20542;-89
2020/12/07 03:46:43;;;;;;;13.05;11.25;;;;;;;;;;5120585;28;20453;-89
2020/12/07 03:49:10;;;;;;;13.73;11.63;;;;;;;;;;5120448;28;20190;-89
2020/12/07 03:51:38;;;;;;;14.40;11.95;;;;;;;;;;5119755;28;20215;-89
2020/12/07 03:54:05;;;;;;;18.17;14.10;;;;;;;;;;5120214;28;20267;-88
2020/12/07 03:56:32;;;;;;;15.10;12.00;;;;;;;;;;5120276;28;20186;-88
2020/12/07 03:58:59;;;;;;;13.77;10.63;;;;;;;;;;5120634;28;20274;-88
2020/12/07 04:01:26;;;;;;;14.98;12.07;;;;;;;;;;5120546;28;20184;-91
2020/12/07 04:03:58;;;;;;;13.57;10.68;;;;;;;;;;5120608;28;20206;-91
2020/12/07 04:06:28;;;;;;;13.30;11.65;;;;;;;;;;5120384;28;20223;-91
2020/12/07 04:08:55;;;;;;;13.57;11.52;;;;;;;;;;5120705;28;20219;-91
2020/12/07 04:11:22;;;;;;;13.90;12.23;;;;;;;;;;5120330;28;20635;-90
2020/12/07 04:13:49;;;;;;;13.73;11.27;;;;;;;;;;5120791;28;20309;-91
2020/12/07 04:16:16;;;;;;;15.05;12.55;;;;;;;;;;5121097;28;20210;-91
2020/12/07 04:18:49;;;;;;;15.57;12.05;;;;;;;;;;5120314;28;20471;-91
2020/12/07 04:21:17;;;;;;;14.68;12.13;;;;;;;;;;5120286;28;20610;-92
2020/12/07 04:23:44;;;;;;;15.60;12.65;;;;;;;;;;5120871;28;20583;-92
2020/12/07 04:26:10;;;;;;;13.65;11.23;;;;;;;;;;5120979;28;20208;-92
2020/12/07 04:28:37;;;;;;;12.82;11.43;;;;;;;;;;5120517;28;20184;-91
2020/12/07 04:31:04;;;;;;;13.77;10.82;;;;;;;;;;5121053;28;20291;-92
2020/12/07 04:33:34;;;;;;;15.40;10.50;;;;;;;;;;5119874;28;20594;-91
2020/12/07 04:36:01;;;;;;;13.18;10.90;;;;;;;;;;5119497;28;20296;-91
2020/12/07 04:38:28;;;;;;;15.20;11.68;;;;;;;;;;5119901;28;20184;-91
2020/12/07 04:40:56;;;;;;;13.40;11.43;;;;;;;;;;5119531;28;20176;-88
2020/12/07 04:43:23;;;;;;;13.90;10.88;;;;;;;;;;5112060;28;20199;-91
2020/12/07 04:45:50;;;;;;;11.63;9.27;;;;;;;;;;5114834;28;20591;-90
2020/12/07 04:48:18;;;;;;;12.00;9.85;;;;;;;;;;5104056;28;20234;-89
2020/12/07 04:50:45;;;;;;;12.10;8.77;;;;;;;;;;5098946;28;20197;-88
2020/12/07 04:53:12;;;;;;;11.65;9.02;;;;;;;;;;5110655;28;20619;-89
2020/12/07 04:55:41;;;;;;;12.63;8.73;;;;;;;;;;5119567;28;20184;-89
2020/12/07 04:58:08;;;;;;;11.48;10.25;;;;;;;;;;5119785;28;20466;-89
2020/12/07 05:00:35;;;;;;;11.45;9.10;;;;;;;;;;5119106;28;20595;-89
2020/12/07 05:03:02;;;;;;;11.38;8.65;;;;;;;;;;5119165;28;20190;-90
2020/12/07 05:05:29;;;;;;;10.77;7.93;;;;;;;;;;5109014;28;20217;-89
2020/12/07 05:07:56;;;;;;;11.02;7.90;;;;;;;;;;5099316;28;20188;-89
2020/12/07 05:10:29;;;;;;;8.40;6.15;;;;;;;;;;5099663;28;20192;-89
2020/12/07 05:13:05;;;;;;;7.55;6.78;;;;;;;;;;5098738;28;20342;-90
2020/12/07 05:15:32;;;;;;;8.13;5.80;;;;;;;;;;5099753;28;20513;-89
2020/12/07 05:17:59;;;;;;;5.68;4.80;;;;;;;;;;5110961;28;20569;-89
2020/12/07 05:20:27;;;;;;;5.85;4.70;;;;;;;;;;5098749;28;20537;-89
2020/12/07 05:22:54;;;;;;;5.60;4.88;;;;;;;;;;5098863;28;20263;-89
2020/12/07 05:25:21;;;;;;;6.18;5.40;;;;;;;;;;5108076;28;20540;-90
2020/12/07 05:27:49;;;;;;;5.43;4.43;;;;;;;;;;5114597;28;20187;-88
2020/12/07 05:30:21;;;;;;;5.25;4.75;;;;;;;;;;5108369;28;20267;-88
2020/12/07 05:32:49;;;;;;;6.13;4.95;;;;;;;;;;5109005;28;20219;-87
2020/12/07 05:35:16;;;;;;;5.38;4.88;;;;;;;;;;5105489;28;20228;-87
2020/12/07 05:37:43;;;;;;;5.90;5.10;;;;;;;;;;5118941;28;20540;-87
2020/12/07 05:40:11;;;;;;;6.85;5.32;;;;;;;;;;5104616;28;20572;-86
2020/12/07 05:42:38;;;;;;;7.22;5.35;;;;;;;;;;5098085;28;20194;-88
2020/12/07 05:45:06;;;;;;;7.57;5.43;;;;;;;;;;5098675;28;20225;-87
2020/12/07 05:47:37;;;;;;;7.13;6.07;;;;;;;;;;5109507;28;20201;-87
2020/12/07 05:50:06;;;;;;;6.55;5.68;;;;;;;;;;5098189;28;20546;-87
2020/12/07 05:52:40;;;;;;;7.97;7.05;;;;;;;;;;5098028;28;20589;-87
2020/12/07 05:55:07;;;;;;;9.15;7.07;;;;;;;;;;5098053;28;20197;-87
2020/12/07 05:57:48;;;;;;;7.00;5.13;;;;;;;;;;5106939;28;20196;-87
2020/12/07 06:00:22;;;;;;;8.15;7.05;;;;;;;;;;5118404;28;20184;-87
2020/12/07 06:02:54;;;;;;;7.80;6.85;;;;;;;;;;5118640;28;20184;-87
2020/12/07 06:05:21;;;;;;;7.15;6.32;;;;;;;;;;5117055;28;20219;-87
2020/12/07 06:07:55;;;;;;;6.55;5.82;;;;;;;;;;5113913;28;20214;-88
2020/12/07 06:10:26;;;;;;;5.78;5.05;;;;;;;;;;5110345;28;20200;-87
2020/12/07 06:12:55;;;;;;;6.22;5.63;;;;;;;;;;5098030;28;20215;-88
2020/12/07 06:15:22;;;;;;;7.15;5.43;;;;;;;;;;5098359;28;20176;-87
2020/12/07 06:17:50;;;;;;;5.50;5.00;;;;;;;;;;5108284;28;20227;-86
2020/12/07 06:20:32;;;;;;;8.18;5.00;;;;;;;;;;5122216;28;20196;-88
2020/12/07 06:23:01;;;;;;;5.57;5.05;;;;;;;;;;5123303;28;20196;-89
2020/12/07 06:25:30;;;;;;;5.20;4.70;;;;;;;;;;5122391;28;20187;-87
2020/12/07 06:28:05;;;;;;;8.23;4.78;;;;;;;;;;5122290;28;20184;-86
2020/12/07 06:30:41;;;;;;;5.25;4.43;;;;;;;;;;5122265;28;20198;-88
2020/12/07 06:33:09;;;;;;;5.35;4.55;;;;;;;;;;5122392;28;20239;-89
2020/12/07 06:35:45;;;;;;;4.68;4.15;;;;;;;;;;5118995;28;20234;-86
2020/12/07 06:38:12;;;;;;;4.20;3.78;;;;;;;;;;5102282;28;20200;-89
2020/12/07 06:40:40;;;;;;;4.22;3.92;;;;;;;;;;5101665;28;20184;-88
2020/12/07 06:43:21;;;;;;;4.85;3.20;;;;;;;;;;5100533;28;20207;-91
2020/12/07 06:45:48;;;;;;;4.05;3.30;;;;;;;;;;5102413;28;20224;-92
2020/12/07 06:48:19;;;;;;;7.50;6.10;;;;;;;;;;5102126;28;20203;-93
2020/12/07 06:50:48;;;;;;;3.22;2.92;;;;;;;;;;5102037;28;20211;-92
2020/12/07 06:53:40;;;;;;;4.03;3.63;;;;;;;;;;5101853;28;20216;-92
2020/12/07 06:56:08;;;;;;;3.78;3.42;;;;;;;;;;5102253;28;20196;-92
2020/12/07 06:58:37;;;;;;;4.25;3.60;;;;;;;;;;5101955;28;20277;-93
2020/12/07 07:01:09;;;;;;;3.88;3.58;;;;;;;;;;5101167;28;20220;-91
2020/12/07 07:03:37;;;;;;;5.80;3.67;;;;;;;;;;5101129;28;20220;-91
2020/12/07 07:06:12;;;;;;;3.08;2.78;;;;;;;;;;5101464;28;20228;-93
2020/12/07 07:08:40;;;;;;;3.45;3.15;;;;;;;;;;5101332;28;20278;-93
2020/12/07 07:11:08;;;;;;;3.38;3.00;;;;;;;;;;5101766;28;20201;-91
2020/12/07 07:13:35;;;;;;;3.50;3.10;;;;;;;;;;5101317;28;20220;-92
2020/12/07 07:16:02;;;;;;;3.53;3.22;;;;;;;;;;5101333;28;20514;-91
2020/12/07 07:18:29;;;;;;;2.70;2.50;;;;;;;;;;5101107;28;20275;-91
2020/12/07 07:21:02;;;;;;;2.90;2.53;;;;;;;;;;5101758;28;20210;-92
2020/12/07 07:23:31;;;;;;;3.53;3.22;;;;;;;;;;5100677;28;20180;-92
2020/12/07 07:26:21;;;;;;;2.90;2.70;;;;;;;;;;5101617;28;20207;-94
2020/12/07 07:28:49;;;;;;;3.10;2.85;;;;;;;;;;5101072;28;20207;-92
2020/12/07 07:31:16;;;;;;;2.55;2.35;;;;;;;;;;5101278;28;20605;-93
2020/12/07 07:33:43;;;;;;;3.60;3.20;;;;;;;;;;5101018;28;20239;-93
2020/12/07 07:36:36;;;;;;;2.63;2.42;;;;;;;;;;5098687;28;20232;-96
2020/12/07 07:39:04;;;;;;;2.95;2.50;;;;;;;;;;5100836;28;20185;-95
2020/12/07 07:41:31;;;;;;;2.25;2.08;;;;;;;;;;5101270;28;20210;-94
2020/12/07 07:43:58;;;;;;;2.63;2.42;;;;;;;;;;5101170;28;20262;-94
2020/12/07 07:46:26;;;;;;;2.42;2.22;;;;;;;;;;5100988;28;20226;-95
2020/12/07 07:49:11;;;;;;;2.63;2.40;;;;;;;;;;5101311;28;20206;-93
2020/12/07 08:17:14;;;;;;;1.92;1.83;;;;;;;;;;4884908;29;20203;-94
2020/12/07 08:19:42;;;;;;;2.38;2.25;;;;;;;;;;4884293;29;20278;-94
2020/12/07 08:22:16;;;;;;;2.45;2.28;;;;;;;;;;4885106;29;20492;-94
2020/12/07 08:24:58;;;;;;;2.17;1.98;;;;;;;;;;4884857;29;20290;-94
2020/12/07 08:27:32;;;;;;;2.20;2.10;;;;;;;;;;4884612;29;20692;-92
2020/12/07 08:30:01;;;;;;;2.30;2.13;;;;;;;;;;4884360;29;20199;-94
2020/12/07 08:32:28;;;;;;;2.00;1.90;;;;;;;;;;4885230;29;20504;-92
2020/12/07 08:34:55;;;;;;;2.40;2.25;;;;;;;;;;4898714;29;20514;-92
2020/12/07 08:37:24;;;;;;;2.10;2.00;;;;;;;;;;4902714;29;20639;-92
2020/12/07 08:39:52;;;;;;;2.40;2.20;;;;;;;;;;4903007;29;20262;-93
2020/12/07 08:42:19;;;;;;;2.70;2.50;;;;;;;;;;4902999;29;20562;-93
2020/12/07 08:44:47;;;;;;;2.17;2.05;;;;;;;;;;4902849;29;20290;-94
2020/12/07 08:47:14;;;;;;;2.17;2.08;;;;;;;;;;4903345;29;20203;-94
2020/12/07 08:49:49;;;;;;;3.53;2.50;;;;;;;;;;4996237;28;20199;-93
2020/12/07 08:52:16;;;;;;;2.35;2.25;;;;;;;;;;5081254;28;20203;-93
2020/12/07 08:54:43;;;;;;;2.30;2.17;;;;;;;;;;5099567;28;20242;-92
2020/12/07 08:57:10;;;;;;;2.80;2.60;;;;;;;;;;5099173;28;20538;-92
2020/12/07 08:59:37;;;;;;;2.15;2.05;;;;;;;;;;5099434;28;20292;-94
2020/12/07 09:02:05;;;;;;;3.00;2.58;;;;;;;;;;5098957;28;20319;-93
2020/12/07 09:04:32;;;;;;;2.58;2.38;;;;;;;;;;5099845;28;20207;-92
2020/12/07 09:06:59;;;;;;;2.65;2.45;;;;;;;;;;5098876;28;20231;-94
2020/12/07 09:09:25;;;;;;;2.28;2.15;;;;;;;;;;5099794;28;20188;-93
2020/12/07 09:11:52;;;;;;;2.60;2.40;;;;;;;;;;5099093;28;20513;-92
2020/12/07 09:14:19;;;;;;;2.05;1.95;;;;;;;;;;5100120;28;20216;-93
2020/12/07 09:16:46;;;;;;;2.35;2.20;;;;;;;;;;5098694;28;20191;-94
2020/12/07 09:19:14;;;;;;;2.30;2.10;;;;;;;;;;5100178;28;20223;-93
2020/12/07 09:21:41;;;;;;;2.95;2.75;;;;;;;;;;5098859;28;20510;-94
2020/12/07 09:24:18;;;;;;;3.13;2.92;;;;;;;;;;5099383;28;20555;-94
2020/12/07 09:26:45;;;;;;;2.50;2.30;;;;;;;;;;5099114;28;20202;-93
2020/12/07 09:29:12;;;;;;;2.13;1.92;;;;;;;;;;5098939;28;20214;-93
2020/12/07 09:31:39;;;;;;;2.60;2.50;;;;;;;;;;5098735;28;20456;-93
2020/12/07 09:34:06;;;;;;;2.80;2.60;;;;;;;;;;5099342;28;20498;-93
2020/12/07 09:36:34;;;;;;;2.83;2.63;;;;;;;;;;5098352;28;20224;-94
2020/12/07 09:39:01;;;;;;;2.22;2.03;;;;;;;;;;5099471;28;20192;-95
2020/12/07 09:41:28;;;;;;;2.60;2.40;;;;;;;;;;5099604;28;20185;-95
2020/12/07 09:43:55;;;;;;;2.50;2.30;;;;;;;;;;5099485;28;20427;-93
2020/12/07 09:46:22;;;;;;;2.22;2.13;;;;;;;;;;5099429;28;20200;-93
2020/12/07 09:48:49;;;;;;;2.83;2.55;;;;;;;;;;5099101;28;20204;-94
2020/12/07 09:51:16;;;;;;;2.60;2.40;;;;;;;;;;5099676;28;20326;-92
2020/12/07 09:53:44;;;;;;;2.60;2.40;;;;;;;;;;5103436;28;20196;-95
2020/12/07 09:56:11;;;;;;;2.70;2.50;;;;;;;;;;5102578;28;20283;-93
2020/12/07 09:58:38;;;;;;;2.90;2.70;;;;;;;;;;5102810;28;20275;-94
2020/12/07 10:01:05;;;;;;;2.63;2.42;;;;;;;;;;5103583;28;20193;-93
2020/12/07 10:03:32;;;;;;;2.10;2.00;;;;;;;;;;5103278;28;20193;-94
2020/12/07 10:05:59;;;;;;;2.65;2.13;;;;;;;;;;5102590;28;20304;-93
2020/12/07 10:08:26;;;;;;;2.55;2.35;;;;;;;;;;5102889;28;20215;-92
2020/12/07 10:10:54;;;;;;;3.03;2.72;;;;;;;;;;5102900;28;20193;-93
2020/12/07 10:13:21;;;;;;;2.90;2.70;;;;;;;;;;5102548;28;20206;-92
2020/12/07 10:15:48;;;;;;;2.10;2.00;;;;;;;;;;5102014;28;20202;-93
2020/12/07 10:18:15;;;;;;;2.33;2.20;;;;;;;;;;5103012;28;20279;-92
2020/12/07 10:20:42;;;;;;;2.33;2.13;;;;;;;;;;5102152;28;20177;-94
2020/12/07 10:23:09;;;;;;;2.13;2.03;;;;;;;;;;5103038;28;20295;-94
2020/12/07 10:25:36;;;;;;;2.75;2.55;;;;;;;;;;5102635;28;20188;-94
2020/12/07 10:28:04;;;;;;;2.53;2.38;;;;;;;;;;5102785;28;20228;-93
2020/12/07 10:30:31;;;;;;;2.60;2.40;;;;;;;;;;5102503;28;20200;-94
2020/12/07 10:32:58;;;;;;;3.40;3.10;;;;;;;;;;5102756;28;20204;-94
2020/12/07 10:35:25;;;;;;;3.47;3.17;;;;;;;;;;5102044;28;20233;-95
2020/12/07 10:37:53;;;;;;;3.22;3.03;;;;;;;;;;5101852;28;20228;-94
2020/12/07 10:40:20;;;;;;;2.60;2.40;;;;;;;;;;5102053;28;20211;-94
2020/12/07 10:42:47;;;;;;;2.92;2.72;;;;;;;;;;5102237;28;20197;-93
2020/12/07 10:45:15;;;;;;;3.22;3.03;;;;;;;;;;5102102;28;20288;-95
2020/12/07 10:47:42;;;;;;;2.88;2.70;;;;;;;;;;5102716;28;20279;-93
2020/12/07 10:50:09;;;;;;;3.30;3.00;;;;;;;;;;5101523;28;20573;-92
2020/12/07 10:52:36;;;;;;;3.00;2.80;;;;;;;;;;5101735;28;20173;-92
2020/12/07 10:55:03;;;;;;;3.00;2.70;;;;;;;;;;5101891;28;20281;-94
2020/12/07 10:57:30;;;;;;;2.67;2.45;;;;;;;;;;5101829;28;20244;-93
2020/12/07 10:59:57;;;;;;;3.67;3.45;;;;;;;;;;5101448;28;20389;-92
2020/12/07 11:02:28;;;;;;;3.22;3.03;;;;;;;;;;5101368;28;20177;-94
2020/12/07 11:04:54;;;;;;;3.50;3.20;;;;;;;;;;5101009;28;20308;-92
2020/12/07 11:07:23;;;;;;;2.70;2.50;;;;;;;;;;5101393;28;20525;-93
2020/12/07 11:09:50;;;;;;;2.90;2.70;;;;;;;;;;5101671;28;20200;-93
2020/12/07 11:12:20;;;;;;;3.42;2.85;;;;;;;;;;5101661;28;20196;-93
2020/12/07 11:14:47;;;;;;;3.50;3.30;;;;;;;;;;5100886;28;20227;-92
2020/12/07 11:17:14;;;;;;;3.00;2.80;;;;;;;;;;5101014;28;20188;-93
2020/12/07 11:19:43;;;;;;;2.42;2.22;;;;;;;;;;5101989;28;20203;-92
2020/12/07 11:22:11;;;;;;;3.20;3.00;;;;;;;;;;5101783;28;20283;-92
2020/12/07 11:24:39;;;;;;;3.15;2.85;;;;;;;;;;5101188;28;20619;-93
2020/12/07 11:27:07;;;;;;;3.33;3.03;;;;;;;;;;5101229;28;20206;-96
2020/12/07 11:29:34;;;;;;;3.47;3.17;;;;;;;;;;5102226;28;20212;-94
2020/12/07 11:32:01;;;;;;;3.33;3.13;;;;;;;;;;5101091;28;20584;-95
2020/12/07 11:34:28;;;;;;;3.40;3.10;;;;;;;;;;5101175;28;20196;-94
2020/12/07 11:36:56;;;;;;;3.10;2.90;;;;;;;;;;5100413;28;20493;-94
2020/12/07 11:39:35;;;;;;;3.35;3.15;;;;;;;;;;5100730;28;20183;-92
2020/12/07 11:42:13;;;;;;;3.22;3.03;;;;;;;;;;5101370;28;20565;-94
2020/12/07 11:44:40;;;;;;;3.28;3.00;;;;;;;;;;5100906;28;20204;-92
2020/12/07 11:47:09;;;;;;;3.42;3.22;;;;;;;;;;5100404;28;20177;-95
2020/12/07 11:49:36;;;;;;;2.95;2.75;;;;;;;;;;5100911;28;20200;-93
2020/12/07 11:52:05;;;;;;;3.28;3.08;;;;;;;;;;5100125;28;20542;-93
2020/12/07 11:54:33;;;;;;;3.42;2.92;;;;;;;;;;5100794;28;20210;-93
2020/12/07 11:57:04;;;;;;;3.15;2.95;;;;;;;;;;5101097;28;20496;-93
2020/12/07 11:59:31;;;;;;;3.40;3.10;;;;;;;;;;5101298;28;20197;-92
2020/12/07 12:01:58;;;;;;;4.05;3.67;;;;;;;;;;5100570;28;20180;-93
2020/12/07 12:04:25;;;;;;;3.33;3.03;;;;;;;;;;5100291;28;20464;-92
2020/12/07 12:06:52;;;;;;;3.33;2.80;;;;;;;;;;5099901;28;20631;-93
2020/12/07 12:09:20;;;;;;;2.88;2.67;;;;;;;;;;5100401;28;20271;-94
2020/12/07 12:11:47;;;;;;;4.28;3.88;;;;;;;;;;5099921;28;20195;-92
2020/12/07 12:14:14;;;;;;;3.05;2.85;;;;;;;;;;5100225;28;20529;-94
2020/12/07 12:16:41;;;;;;;2.90;2.70;;;;;;;;;;5099704;28;20212;-93
2020/12/07 12:19:11;;;;;;;3.10;2.90;;;;;;;;;;5100118;28;20200;-92
2020/12/07 12:21:38;;;;;;;3.42;3.00;;;;;;;;;;5099861;28;20183;-94
2020/12/07 12:24:06;;;;;;;3.67;3.38;;;;;;;;;;5099871;28;20180;-93
2020/12/07 12:26:35;;;;;;;3.13;2.88;;;;;;;;;;5100845;28;20212;-94
2020/12/07 12:29:03;;;;;;;4.45;4.05;;;;;;;;;;5100027;28;20228;-94
2020/12/07 12:31:30;;;;;;;3.50;3.20;;;;;;;;;;5100492;28;20200;-93
2020/12/07 12:33:57;;;;;;;3.50;3.20;;;;;;;;;;5099619;28;20585;-93
2020/12/07 12:36:27;;;;;;;3.17;2.88;;;;;;;;;;5099315;28;20228;-93
2020/12/07 12:38:55;;;;;;;3.05;2.85;;;;;;;;;;5100336;28;20204;-93
2020/12/07 12:41:22;;;;;;;3.33;3.13;;;;;;;;;;5099539;28;20191;-93
2020/12/07 12:43:50;;;;;;;2.88;2.67;;;;;;;;;;5099964;28;20506;-92
2020/12/07 12:46:17;;;;;;;3.53;3.22;;;;;;;;;;5099915;28;20200;-92
2020/12/07 12:48:44;;;;;;;3.22;2.70;;;;;;;;;;5099177;28;20201;-94
2020/12/07 12:51:12;;;;;;;3.33;3.05;;;;;;;;;;5099976;28;20201;-91
2020/12/07 12:53:40;;;;;;;3.00;2.80;;;;;;;;;;5099828;28;20215;-93
2020/12/07 12:56:07;;;;;;;2.88;2.60;;;;;;;;;;5099041;28;20228;-93
2020/12/07 12:58:35;;;;;;;2.70;2.50;;;;;;;;;;5099806;28;20204;-93
2020/12/07 13:01:03;;;;;;;2.47;2.38;;;;;;;;;;5099670;28;20279;-93
2020/12/07 13:03:30;;;;;;;2.70;2.50;;;;;;;;;;5099899;28;20211;-92
2020/12/07 13:05:57;;;;;;;2.70;2.50;;;;;;;;;;5099003;28;20303;-92
2020/12/07 13:12:05;;;;;;;3.10;2.90;;;;;;;;;;5099145;28;20552;-91
2020/12/07 13:14:32;;;;;;;2.88;2.67;;;;;;;;;;5099483;28;20196;-91
2020/12/07 13:17:03;;;;;;;3.70;3.40;;;;;;;;;;5099450;28;20224;-92
2020/12/07 13:19:31;;;;;;;3.47;3.28;;;;;;;;;;5099432;28;20207;-92
2020/12/07 13:22:04;;;;;;;3.30;3.00;;;;;;;;;;5099371;28;20192;-90
2020/12/07 13:24:36;;;;;;;3.08;2.88;;;;;;;;;;5099620;28;20201;-92
2020/12/07 13:29:59;;;;;;;2.58;2.38;;;;;;;;;;5017624;28;20297;-91
2020/12/07 13:32:27;;;;;;;3.33;3.03;;;;;;;;;;5018075;28;20261;-91
2020/12/07 13:34:54;;;;;;;3.47;3.17;;;;;;;;;;5017719;28;20192;-90
2020/12/07 13:37:21;;;;;;;3.35;3.10;;;;;;;;;;5017078;28;20235;-91
2020/12/07 13:39:48;;;;;;;3.25;3.05;;;;;;;;;;5017269;28;20183;-91
2020/12/07 13:42:15;;;;;;;3.45;3.00;;;;;;;;;;5017270;28;20197;-90
2020/12/07 13:44:42;;;;;;;3.63;3.33;;;;;;;;;;5018025;28;20194;-90
2020/12/07 13:47:10;;;;;;;2.97;2.78;;;;;;;;;;5017358;28;20617;-90
2020/12/07 13:49:38;;;;;;;3.00;2.80;;;;;;;;;;5017940;28;20309;-91
2020/12/07 13:52:09;;;;;;;2.92;2.50;;;;;;;;;;5000876;28;20199;-91
2020/12/07 13:54:36;;;;;;;2.83;2.63;;;;;;;;;;5017654;28;20203;-91
2020/12/07 13:57:03;;;;;;;2.88;2.67;;;;;;;;;;5017449;28;20233;-91
2020/12/07 13:59:30;;;;;;;3.88;3.10;;;;;;;;;;5017073;28;20206;-91
2020/12/07 14:01:57;;;;;;;3.55;2.42;;;;;;;;;;5017129;28;20183;-91
2020/12/07 14:04:34;;;;;;;2.80;2.47;;;;;;;;;;5053273;28;20197;-90
2020/12/07 14:07:01;;;;;;;3.25;3.03;;;;;;;;;;5078089;28;20600;-90
2020/12/07 14:09:28;;;;;;;2.45;2.25;;;;;;;;;;5078596;28;20201;-91
2020/12/07 14:11:56;;;;;;;3.33;2.72;;;;;;;;;;5078371;28;20205;-91
2020/12/07 14:14:23;;;;;;;2.97;2.78;;;;;;;;;;5078721;28;20197;-91
2020/12/07 14:16:58;;;;;;;3.20;3.00;;;;;;;;;;5077824;28;20237;-90
2020/12/07 14:19:30;;;;;;;3.22;2.80;;;;;;;;;;5078859;28;20323;-91
2020/12/07 14:24:51;;;;;;;3.25;2.95;;;;;;;;;;5017255;28;20222;-91
2020/12/07 14:27:37;;;;;;;3.35;3.13;;;;;;;;;;5017219;28;20261;-91
2020/12/07 14:30:28;;;;;;;3.88;3.13;;;;;;;;;;5017478;28;20218;-91
2020/12/07 14:41:14;;;;;;;3.53;3.10;;;;;;;;;;5020764;28;20202;-91
2020/12/07 14:43:41;;;;;;;3.30;3.00;;;;;;;;;;5020953;28;20213;-90
2020/12/07 14:46:11;;;;;;;3.42;3.13;;;;;;;;;;5020324;28;20184;-91
2020/12/07 14:48:39;;;;;;;3.38;2.95;;;;;;;;;;5021170;28;20298;-90
2020/12/07 14:51:15;;;;;;;4.03;3.63;;;;;;;;;;5020840;28;20196;-91
2020/12/07 14:53:42;;;;;;;4.47;3.85;;;;;;;;;;5020741;28;20202;-92
2020/12/07 14:56:13;;;;;;;3.83;3.42;;;;;;;;;;5020379;28;20219;-92
2020/12/07 15:06:56;;;;;;;2.88;2.60;;;;;;;;;;5018417;28;20329;-91
2020/12/07 15:12:20;;;;;;;2.85;2.63;;;;;;;;;;5019860;28;20191;-92
2020/12/07 15:14:59;;;;;;;3.13;2.92;;;;;;;;;;5020155;28;20227;-94
2020/12/07 15:17:26;;;;;;;3.72;3.45;;;;;;;;;;5020406;28;20225;-93
2020/12/07 15:19:53;;;;;;;3.58;3.28;;;;;;;;;;5020197;28;20199;-92
2020/12/07 15:22:20;;;;;;;4.47;4.05;;;;;;;;;;5019643;28;20327;-94
2020/12/07 15:24:47;;;;;;;4.63;4.20;;;;;;;;;;5019504;28;20520;-92
2020/12/07 15:27:23;;;;;;;5.18;4.78;;;;;;;;;;4971841;28;20233;-92
2020/12/07 15:29:51;;;;;;;4.43;4.03;;;;;;;;;;5019439;28;20266;-93
2020/12/07 15:32:18;;;;;;;5.60;4.97;;;;;;;;;;5019416;28;20203;-93
2020/12/07 15:34:45;;;;;;;4.78;4.43;;;;;;;;;;5019249;28;20199;-93